sensor_id;sensor_type;location;lat;lon;timestamp;P1;durP1;ratioP1;P2;durP2;ratioP2
38113;SDS011;23926;53.222;6.354;2023-04-24T00:00:33;3.97;;;3.03;;
38113;SDS011;23926;53.222;6.354;2023-04-24T00:02:59;5.30;;;4.45;;
38113;SDS011;23926;53.222;6.354;2023-04-24T00:05:24;5.25;;;4.00;;
38113;SDS011;23926;53.222;6.354;2023-04-24T00:07:50;8.02;;;4.10;;
38113;SDS011;23926;53.222;6.354;2023-04-24T00:10:19;4.78;;;4.22;;
38113;SDS011;23926;53.222;6.354;2023-04-24T00:12:44;4.55;;;3.72;;
38113;SDS011;23926;53.222;6.354;2023-04-24T00:15:10;4.00;;;3.60;;
38113;SDS011;23926;53.222;6.354;2023-04-24T00:17:36;3.85;;;3.50;;
38113;SDS011;23926;53.222;6.354;2023-04-24T00:20:01;4.13;;;3.72;;
38113;SDS011;23926;53.222;6.354;2023-04-24T00:22:29;4.13;;;3.72;;
38113;SDS011;23926;53.222;6.354;2023-04-24T00:24:55;5.78;;;4.00;;
38113;SDS011;23926;53.222;6.354;2023-04-24T00:27:21;6.07;;;5.43;;
38113;SDS011;23926;53.222;6.354;2023-04-24T00:29:47;4.95;;;4.45;;
38113;SDS011;23926;53.222;6.354;2023-04-24T00:32:12;5.07;;;4.57;;
38113;SDS011;23926;53.222;6.354;2023-04-24T00:34:38;4.60;;;4.18;;
38113;SDS011;23926;53.222;6.354;2023-04-24T00:37:04;4.97;;;4.40;;
38113;SDS011;23926;53.222;6.354;2023-04-24T00:39:30;5.15;;;4.65;;
38113;SDS011;23926;53.222;6.354;2023-04-24T00:41:55;6.15;;;5.13;;
38113;SDS011;23926;53.222;6.354;2023-04-24T00:44:21;9.18;;;6.45;;
38113;SDS011;23926;53.222;6.354;2023-04-24T00:46:47;7.88;;;6.25;;
38113;SDS011;23926;53.222;6.354;2023-04-24T00:49:17;8.43;;;5.82;;
38113;SDS011;23926;53.222;6.354;2023-04-24T00:51:43;8.93;;;7.38;;
38113;SDS011;23926;53.222;6.354;2023-04-24T00:54:11;7.70;;;5.85;;
38113;SDS011;23926;53.222;6.354;2023-04-24T00:56:37;6.93;;;4.95;;
38113;SDS011;23926;53.222;6.354;2023-04-24T00:59:02;4.20;;;3.85;;
38113;SDS011;23926;53.222;6.354;2023-04-24T01:01:29;3.28;;;2.97;;
38113;SDS011;23926;53.222;6.354;2023-04-24T01:03:55;3.85;;;3.28;;
38113;SDS011;23926;53.222;6.354;2023-04-24T01:06:22;6.28;;;3.78;;
38113;SDS011;23926;53.222;6.354;2023-04-24T01:08:48;4.32;;;3.28;;
38113;SDS011;23926;53.222;6.354;2023-04-24T01:11:14;4.40;;;3.67;;
38113;SDS011;23926;53.222;6.354;2023-04-24T01:13:40;4.65;;;3.20;;
38113;SDS011;23926;53.222;6.354;2023-04-24T01:16:06;6.13;;;3.42;;
38113;SDS011;23926;53.222;6.354;2023-04-24T01:18:31;4.00;;;3.17;;
38113;SDS011;23926;53.222;6.354;2023-04-24T01:20:57;3.22;;;3.03;;
38113;SDS011;23926;53.222;6.354;2023-04-24T01:23:24;3.05;;;2.75;;
38113;SDS011;23926;53.222;6.354;2023-04-24T01:25:50;3.83;;;3.20;;
38113;SDS011;23926;53.222;6.354;2023-04-24T01:28:16;3.58;;;2.90;;
38113;SDS011;23926;53.222;6.354;2023-04-24T01:30:42;3.08;;;2.78;;
38113;SDS011;23926;53.222;6.354;2023-04-24T01:33:08;3.70;;;2.72;;
38113;SDS011;23926;53.222;6.354;2023-04-24T01:35:34;3.05;;;2.70;;
38113;SDS011;23926;53.222;6.354;2023-04-24T01:38:01;3.10;;;2.80;;
38113;SDS011;23926;53.222;6.354;2023-04-24T01:40:27;4.40;;;2.95;;
38113;SDS011;23926;53.222;6.354;2023-04-24T01:42:52;3.05;;;2.75;;
38113;SDS011;23926;53.222;6.354;2023-04-24T01:45:17;3.35;;;3.05;;
38113;SDS011;23926;53.222;6.354;2023-04-24T01:47:43;3.78;;;2.83;;
38113;SDS011;23926;53.222;6.354;2023-04-24T01:50:10;2.92;;;2.63;;
38113;SDS011;23926;53.222;6.354;2023-04-24T01:52:35;3.25;;;2.95;;
38113;SDS011;23926;53.222;6.354;2023-04-24T01:55:01;3.72;;;2.88;;
38113;SDS011;23926;53.222;6.354;2023-04-24T01:57:30;2.50;;;2.30;;
38113;SDS011;23926;53.222;6.354;2023-04-24T01:59:56;3.03;;;2.78;;
38113;SDS011;23926;53.222;6.354;2023-04-24T02:02:22;2.45;;;2.25;;
38113;SDS011;23926;53.222;6.354;2023-04-24T02:04:49;3.15;;;2.83;;
38113;SDS011;23926;53.222;6.354;2023-04-24T02:07:15;4.00;;;2.80;;
38113;SDS011;23926;53.222;6.354;2023-04-24T02:09:41;3.17;;;2.88;;
38113;SDS011;23926;53.222;6.354;2023-04-24T02:12:07;2.92;;;2.72;;
38113;SDS011;23926;53.222;6.354;2023-04-24T02:14:32;3.72;;;2.80;;
38113;SDS011;23926;53.222;6.354;2023-04-24T02:16:57;2.80;;;2.60;;
38113;SDS011;23926;53.222;6.354;2023-04-24T02:19:23;3.03;;;2.78;;
38113;SDS011;23926;53.222;6.354;2023-04-24T02:21:48;2.90;;;2.70;;
38113;SDS011;23926;53.222;6.354;2023-04-24T02:24:14;2.97;;;2.70;;
38113;SDS011;23926;53.222;6.354;2023-04-24T02:26:39;2.65;;;2.45;;
38113;SDS011;23926;53.222;6.354;2023-04-24T02:29:05;2.90;;;2.70;;
38113;SDS011;23926;53.222;6.354;2023-04-24T02:31:30;3.47;;;3.17;;
38113;SDS011;23926;53.222;6.354;2023-04-24T02:33:55;2.80;;;2.60;;
38113;SDS011;23926;53.222;6.354;2023-04-24T02:36:21;6.10;;;3.85;;
38113;SDS011;23926;53.222;6.354;2023-04-24T02:38:46;3.83;;;3.53;;
38113;SDS011;23926;53.222;6.354;2023-04-24T02:41:12;3.83;;;3.53;;
38113;SDS011;23926;53.222;6.354;2023-04-24T02:43:37;3.13;;;2.90;;
38113;SDS011;23926;53.222;6.354;2023-04-24T02:46:02;3.70;;;3.40;;
38113;SDS011;23926;53.222;6.354;2023-04-24T02:48:28;6.40;;;5.80;;
38113;SDS011;23926;53.222;6.354;2023-04-24T02:50:53;6.78;;;6.10;;
38113;SDS011;23926;53.222;6.354;2023-04-24T02:53:19;5.43;;;4.72;;
38113;SDS011;23926;53.222;6.354;2023-04-24T02:55:44;7.35;;;6.22;;
38113;SDS011;23926;53.222;6.354;2023-04-24T02:58:11;7.38;;;6.07;;
38113;SDS011;23926;53.222;6.354;2023-04-24T03:00:37;6.43;;;5.72;;
38113;SDS011;23926;53.222;6.354;2023-04-24T03:03:03;9.43;;;6.55;;
38113;SDS011;23926;53.222;6.354;2023-04-24T03:05:28;7.40;;;6.63;;
38113;SDS011;23926;53.222;6.354;2023-04-24T03:07:55;5.88;;;5.38;;
38113;SDS011;23926;53.222;6.354;2023-04-24T03:10:21;8.82;;;7.68;;
38113;SDS011;23926;53.222;6.354;2023-04-24T03:12:47;9.13;;;7.68;;
38113;SDS011;23926;53.222;6.354;2023-04-24T03:15:13;10.50;;;6.82;;
38113;SDS011;23926;53.222;6.354;2023-04-24T03:17:38;6.93;;;6.22;;
38113;SDS011;23926;53.222;6.354;2023-04-24T03:20:04;7.68;;;6.93;;
38113;SDS011;23926;53.222;6.354;2023-04-24T03:22:30;16.33;;;8.38;;
38113;SDS011;23926;53.222;6.354;2023-04-24T03:24:57;12.93;;;10.15;;
38113;SDS011;23926;53.222;6.354;2023-04-24T03:27:23;8.18;;;6.75;;
38113;SDS011;23926;53.222;6.354;2023-04-24T03:29:48;14.48;;;10.25;;
38113;SDS011;23926;53.222;6.354;2023-04-24T03:32:18;8.48;;;7.57;;
38113;SDS011;23926;53.222;6.354;2023-04-24T03:34:44;10.52;;;9.38;;
38113;SDS011;23926;53.222;6.354;2023-04-24T03:37:09;9.75;;;8.35;;
38113;SDS011;23926;53.222;6.354;2023-04-24T03:39:35;13.25;;;10.60;;
38113;SDS011;23926;53.222;6.354;2023-04-24T03:42:00;13.25;;;10.57;;
38113;SDS011;23926;53.222;6.354;2023-04-24T03:44:26;21.10;;;14.13;;
38113;SDS011;23926;53.222;6.354;2023-04-24T03:46:51;18.88;;;12.40;;
38113;SDS011;23926;53.222;6.354;2023-04-24T03:49:17;15.02;;;12.00;;
38113;SDS011;23926;53.222;6.354;2023-04-24T03:51:42;12.80;;;10.30;;
38113;SDS011;23926;53.222;6.354;2023-04-24T03:54:07;11.65;;;10.23;;
38113;SDS011;23926;53.222;6.354;2023-04-24T03:56:33;13.75;;;10.48;;
38113;SDS011;23926;53.222;6.354;2023-04-24T03:58:58;15.70;;;11.70;;
38113;SDS011;23926;53.222;6.354;2023-04-24T04:01:24;17.85;;;12.43;;
38113;SDS011;23926;53.222;6.354;2023-04-24T04:03:49;17.33;;;12.70;;
38113;SDS011;23926;53.222;6.354;2023-04-24T04:06:15;19.58;;;14.57;;
38113;SDS011;23926;53.222;6.354;2023-04-24T04:08:40;24.80;;;15.45;;
38113;SDS011;23926;53.222;6.354;2023-04-24T04:11:06;11.75;;;10.15;;
38113;SDS011;23926;53.222;6.354;2023-04-24T04:13:31;27.63;;;16.42;;
38113;SDS011;23926;53.222;6.354;2023-04-24T04:15:56;16.67;;;12.52;;
38113;SDS011;23926;53.222;6.354;2023-04-24T04:18:22;19.52;;;14.93;;
38113;SDS011;23926;53.222;6.354;2023-04-24T04:20:47;13.55;;;10.27;;
38113;SDS011;23926;53.222;6.354;2023-04-24T04:23:19;16.27;;;11.65;;
38113;SDS011;23926;53.222;6.354;2023-04-24T04:25:44;11.82;;;9.65;;
38113;SDS011;23926;53.222;6.354;2023-04-24T04:28:10;11.30;;;9.15;;
38113;SDS011;23926;53.222;6.354;2023-04-24T04:30:35;9.80;;;6.60;;
38113;SDS011;23926;53.222;6.354;2023-04-24T04:33:03;9.77;;;6.25;;
38113;SDS011;23926;53.222;6.354;2023-04-24T04:35:28;7.68;;;5.70;;
38113;SDS011;23926;53.222;6.354;2023-04-24T04:37:54;6.13;;;4.43;;
38113;SDS011;23926;53.222;6.354;2023-04-24T04:40:19;5.38;;;4.20;;
38113;SDS011;23926;53.222;6.354;2023-04-24T04:42:45;5.68;;;4.10;;
38113;SDS011;23926;53.222;6.354;2023-04-24T04:45:11;5.45;;;3.50;;
38113;SDS011;23926;53.222;6.354;2023-04-24T04:47:36;4.03;;;3.17;;
38113;SDS011;23926;53.222;6.354;2023-04-24T04:50:02;5.20;;;3.40;;
38113;SDS011;23926;53.222;6.354;2023-04-24T04:52:28;4.53;;;3.25;;
38113;SDS011;23926;53.222;6.354;2023-04-24T04:54:54;3.67;;;3.05;;
38113;SDS011;23926;53.222;6.354;2023-04-24T04:57:20;4.65;;;3.33;;
38113;SDS011;23926;53.222;6.354;2023-04-24T04:59:46;6.85;;;4.22;;
38113;SDS011;23926;53.222;6.354;2023-04-24T05:02:11;7.00;;;3.20;;
38113;SDS011;23926;53.222;6.354;2023-04-24T05:04:37;3.47;;;2.97;;
38113;SDS011;23926;53.222;6.354;2023-04-24T05:07:02;4.35;;;2.60;;
38113;SDS011;23926;53.222;6.354;2023-04-24T05:09:28;3.63;;;2.85;;
38113;SDS011;23926;53.222;6.354;2023-04-24T05:11:54;4.15;;;3.30;;
38113;SDS011;23926;53.222;6.354;2023-04-24T05:14:21;7.97;;;3.63;;
38113;SDS011;23926;53.222;6.354;2023-04-24T05:16:46;5.78;;;3.50;;
38113;SDS011;23926;53.222;6.354;2023-04-24T05:19:12;5.15;;;4.05;;
38113;SDS011;23926;53.222;6.354;2023-04-24T05:21:38;6.97;;;5.05;;
38113;SDS011;23926;53.222;6.354;2023-04-24T05:24:04;9.55;;;5.22;;
38113;SDS011;23926;53.222;6.354;2023-04-24T05:26:31;6.40;;;3.45;;
38113;SDS011;23926;53.222;6.354;2023-04-24T05:28:56;4.70;;;3.60;;
38113;SDS011;23926;53.222;6.354;2023-04-24T05:31:22;5.15;;;3.40;;
38113;SDS011;23926;53.222;6.354;2023-04-24T05:33:47;4.82;;;4.20;;
38113;SDS011;23926;53.222;6.354;2023-04-24T05:36:12;4.93;;;4.20;;
38113;SDS011;23926;53.222;6.354;2023-04-24T05:38:38;7.65;;;4.63;;
38113;SDS011;23926;53.222;6.354;2023-04-24T05:41:03;7.63;;;5.47;;
38113;SDS011;23926;53.222;6.354;2023-04-24T05:43:29;8.73;;;5.60;;
38113;SDS011;23926;53.222;6.354;2023-04-24T05:45:54;8.10;;;5.47;;
38113;SDS011;23926;53.222;6.354;2023-04-24T05:48:20;7.65;;;5.53;;
38113;SDS011;23926;53.222;6.354;2023-04-24T05:50:47;13.02;;;6.20;;
38113;SDS011;23926;53.222;6.354;2023-04-24T05:53:13;7.75;;;5.80;;
38113;SDS011;23926;53.222;6.354;2023-04-24T05:55:39;11.48;;;5.82;;
38113;SDS011;23926;53.222;6.354;2023-04-24T05:58:05;9.35;;;5.20;;
38113;SDS011;23926;53.222;6.354;2023-04-24T06:00:31;6.95;;;5.35;;
38113;SDS011;23926;53.222;6.354;2023-04-24T06:02:56;8.35;;;5.35;;
38113;SDS011;23926;53.222;6.354;2023-04-24T06:05:22;9.27;;;6.22;;
38113;SDS011;23926;53.222;6.354;2023-04-24T06:07:47;8.57;;;5.72;;
38113;SDS011;23926;53.222;6.354;2023-04-24T06:10:13;9.02;;;6.55;;
38113;SDS011;23926;53.222;6.354;2023-04-24T06:12:39;12.43;;;6.88;;
38113;SDS011;23926;53.222;6.354;2023-04-24T06:15:04;10.88;;;8.07;;
38113;SDS011;23926;53.222;6.354;2023-04-24T06:17:31;14.52;;;7.43;;
38113;SDS011;23926;53.222;6.354;2023-04-24T06:19:57;9.20;;;7.15;;
38113;SDS011;23926;53.222;6.354;2023-04-24T06:22:22;8.73;;;7.03;;
38113;SDS011;23926;53.222;6.354;2023-04-24T06:24:48;15.55;;;6.75;;
38113;SDS011;23926;53.222;6.354;2023-04-24T06:27:13;8.55;;;5.40;;
38113;SDS011;23926;53.222;6.354;2023-04-24T06:29:39;6.97;;;4.57;;
38113;SDS011;23926;53.222;6.354;2023-04-24T06:32:05;6.68;;;5.13;;
38113;SDS011;23926;53.222;6.354;2023-04-24T06:34:30;5.93;;;4.07;;
38113;SDS011;23926;53.222;6.354;2023-04-24T06:36:57;7.38;;;4.57;;
38113;SDS011;23926;53.222;6.354;2023-04-24T06:39:23;5.50;;;4.25;;
38113;SDS011;23926;53.222;6.354;2023-04-24T06:41:48;7.93;;;4.22;;
38113;SDS011;23926;53.222;6.354;2023-04-24T06:44:14;6.80;;;3.72;;
38113;SDS011;23926;53.222;6.354;2023-04-24T06:46:40;6.60;;;3.20;;
38113;SDS011;23926;53.222;6.354;2023-04-24T06:49:06;6.07;;;3.20;;
38113;SDS011;23926;53.222;6.354;2023-04-24T06:51:31;4.13;;;2.97;;
38113;SDS011;23926;53.222;6.354;2023-04-24T06:53:58;6.88;;;3.92;;
38113;SDS011;23926;53.222;6.354;2023-04-24T06:56:24;4.15;;;3.00;;
38113;SDS011;23926;53.222;6.354;2023-04-24T06:58:51;6.00;;;2.90;;
38113;SDS011;23926;53.222;6.354;2023-04-24T07:01:16;7.80;;;3.20;;
38113;SDS011;23926;53.222;6.354;2023-04-24T07:03:42;7.68;;;3.80;;
38113;SDS011;23926;53.222;6.354;2023-04-24T07:06:08;9.23;;;3.60;;
38113;SDS011;23926;53.222;6.354;2023-04-24T07:08:36;4.45;;;3.33;;
38113;SDS011;23926;53.222;6.354;2023-04-24T07:11:03;9.15;;;3.72;;
38113;SDS011;23926;53.222;6.354;2023-04-24T07:13:28;4.93;;;3.22;;
38113;SDS011;23926;53.222;6.354;2023-04-24T07:15:54;8.18;;;3.38;;
38113;SDS011;23926;53.222;6.354;2023-04-24T07:18:21;6.32;;;3.58;;
38113;SDS011;23926;53.222;6.354;2023-04-24T07:20:47;7.90;;;3.63;;
38113;SDS011;23926;53.222;6.354;2023-04-24T07:23:12;9.00;;;3.40;;
38113;SDS011;23926;53.222;6.354;2023-04-24T07:25:38;9.02;;;2.60;;
38113;SDS011;23926;53.222;6.354;2023-04-24T07:28:04;4.47;;;2.78;;
38113;SDS011;23926;53.222;6.354;2023-04-24T07:30:30;7.88;;;4.97;;
38113;SDS011;23926;53.222;6.354;2023-04-24T07:32:57;13.18;;;5.93;;
38113;SDS011;23926;53.222;6.354;2023-04-24T07:35:23;18.05;;;8.32;;
38113;SDS011;23926;53.222;6.354;2023-04-24T07:37:50;16.75;;;8.98;;
38113;SDS011;23926;53.222;6.354;2023-04-24T07:40:15;20.38;;;12.13;;
38113;SDS011;23926;53.222;6.354;2023-04-24T07:42:41;22.17;;;11.35;;
38113;SDS011;23926;53.222;6.354;2023-04-24T07:45:06;25.70;;;14.48;;
38113;SDS011;23926;53.222;6.354;2023-04-24T07:47:32;33.28;;;16.52;;
38113;SDS011;23926;53.222;6.354;2023-04-24T07:49:58;29.75;;;16.63;;
38113;SDS011;23926;53.222;6.354;2023-04-24T07:52:24;38.58;;;18.45;;
38113;SDS011;23926;53.222;6.354;2023-04-24T07:54:50;38.05;;;19.30;;
38113;SDS011;23926;53.222;6.354;2023-04-24T07:57:15;41.45;;;19.73;;
38113;SDS011;23926;53.222;6.354;2023-04-24T07:59:41;37.40;;;18.08;;
38113;SDS011;23926;53.222;6.354;2023-04-24T08:02:07;50.40;;;23.25;;
38113;SDS011;23926;53.222;6.354;2023-04-24T08:04:32;36.67;;;19.45;;
38113;SDS011;23926;53.222;6.354;2023-04-24T08:06:58;44.72;;;20.40;;
38113;SDS011;23926;53.222;6.354;2023-04-24T08:09:23;46.33;;;22.00;;
38113;SDS011;23926;53.222;6.354;2023-04-24T08:11:49;38.15;;;19.73;;
38113;SDS011;23926;53.222;6.354;2023-04-24T08:14:14;32.50;;;17.33;;
38113;SDS011;23926;53.222;6.354;2023-04-24T08:16:40;30.65;;;17.65;;
38113;SDS011;23926;53.222;6.354;2023-04-24T08:19:06;33.17;;;17.52;;
38113;SDS011;23926;53.222;6.354;2023-04-24T08:21:31;33.88;;;18.05;;
38113;SDS011;23926;53.222;6.354;2023-04-24T08:23:57;37.63;;;18.08;;
38113;SDS011;23926;53.222;6.354;2023-04-24T08:26:22;29.27;;;16.88;;
38113;SDS011;23926;53.222;6.354;2023-04-24T08:28:48;33.78;;;17.90;;
38113;SDS011;23926;53.222;6.354;2023-04-24T08:31:14;29.63;;;16.45;;
38113;SDS011;23926;53.222;6.354;2023-04-24T08:33:40;31.10;;;15.43;;
38113;SDS011;23926;53.222;6.354;2023-04-24T08:36:06;32.13;;;16.77;;
38113;SDS011;23926;53.222;6.354;2023-04-24T08:38:32;25.50;;;15.88;;
38113;SDS011;23926;53.222;6.354;2023-04-24T08:40:59;32.08;;;16.58;;
38113;SDS011;23926;53.222;6.354;2023-04-24T08:43:25;26.85;;;15.45;;
38113;SDS011;23926;53.222;6.354;2023-04-24T08:45:52;24.65;;;14.30;;
38113;SDS011;23926;53.222;6.354;2023-04-24T08:48:18;20.48;;;12.85;;
38113;SDS011;23926;53.222;6.354;2023-04-24T08:50:43;23.45;;;14.30;;
38113;SDS011;23926;53.222;6.354;2023-04-24T08:53:09;19.73;;;12.45;;
38113;SDS011;23926;53.222;6.354;2023-04-24T08:55:35;27.35;;;13.27;;
38113;SDS011;23926;53.222;6.354;2023-04-24T08:58:02;22.85;;;12.65;;
38113;SDS011;23926;53.222;6.354;2023-04-24T09:00:29;29.38;;;13.45;;
38113;SDS011;23926;53.222;6.354;2023-04-24T09:02:55;17.45;;;10.77;;
38113;SDS011;23926;53.222;6.354;2023-04-24T09:05:21;17.00;;;10.60;;
38113;SDS011;23926;53.222;6.354;2023-04-24T09:07:57;22.00;;;10.02;;
38113;SDS011;23926;53.222;6.354;2023-04-24T09:10:26;22.65;;;10.82;;
38113;SDS011;23926;53.222;6.354;2023-04-24T09:12:55;19.27;;;9.25;;
38113;SDS011;23926;53.222;6.354;2023-04-24T09:15:23;20.10;;;11.02;;
38113;SDS011;23926;53.222;6.354;2023-04-24T09:17:49;15.68;;;9.50;;
38113;SDS011;23926;53.222;6.354;2023-04-24T09:20:14;24.10;;;11.68;;
38113;SDS011;23926;53.222;6.354;2023-04-24T09:22:40;21.33;;;9.63;;
38113;SDS011;23926;53.222;6.354;2023-04-24T09:25:07;16.38;;;9.77;;
38113;SDS011;23926;53.222;6.354;2023-04-24T09:27:34;19.10;;;9.73;;
38113;SDS011;23926;53.222;6.354;2023-04-24T09:30:00;19.88;;;8.77;;
38113;SDS011;23926;53.222;6.354;2023-04-24T09:32:26;18.33;;;8.32;;
38113;SDS011;23926;53.222;6.354;2023-04-24T09:35:11;15.52;;;8.90;;
38113;SDS011;23926;53.222;6.354;2023-04-24T09:37:42;15.27;;;7.53;;
38113;SDS011;23926;53.222;6.354;2023-04-24T09:40:13;18.15;;;8.48;;
38113;SDS011;23926;53.222;6.354;2023-04-24T09:43:01;20.85;;;8.30;;
38113;SDS011;23926;53.222;6.354;2023-04-24T09:45:28;12.30;;;6.30;;
38113;SDS011;23926;53.222;6.354;2023-04-24T09:47:59;13.25;;;5.72;;
38113;SDS011;23926;53.222;6.354;2023-04-24T09:50:25;7.78;;;5.05;;
38113;SDS011;23926;53.222;6.354;2023-04-24T09:52:58;12.70;;;5.03;;
38113;SDS011;23926;53.222;6.354;2023-04-24T09:55:26;11.55;;;5.38;;
38113;SDS011;23926;53.222;6.354;2023-04-24T09:57:53;10.05;;;4.80;;
38113;SDS011;23926;53.222;6.354;2023-04-24T10:00:27;8.88;;;4.18;;
38113;SDS011;23926;53.222;6.354;2023-04-24T10:03:02;14.65;;;5.40;;
38113;SDS011;23926;53.222;6.354;2023-04-24T10:05:30;8.57;;;3.72;;
38113;SDS011;23926;53.222;6.354;2023-04-24T10:08:18;14.20;;;5.00;;
38113;SDS011;23926;53.222;6.354;2023-04-24T10:10:43;10.57;;;4.03;;
38113;SDS011;23926;53.222;6.354;2023-04-24T10:13:11;10.85;;;4.07;;
38113;SDS011;23926;53.222;6.354;2023-04-24T10:15:38;10.13;;;3.70;;
38113;SDS011;23926;53.222;6.354;2023-04-24T10:18:04;6.35;;;3.00;;
38113;SDS011;23926;53.222;6.354;2023-04-24T10:20:31;11.75;;;3.72;;
38113;SDS011;23926;53.222;6.354;2023-04-24T10:22:59;8.63;;;3.95;;
38113;SDS011;23926;53.222;6.354;2023-04-24T10:25:32;11.90;;;3.60;;
38113;SDS011;23926;53.222;6.354;2023-04-24T10:27:59;8.75;;;3.25;;
38113;SDS011;23926;53.222;6.354;2023-04-24T10:30:27;9.35;;;3.97;;
38113;SDS011;23926;53.222;6.354;2023-04-24T10:32:53;11.88;;;4.00;;
38113;SDS011;23926;53.222;6.354;2023-04-24T10:35:19;14.23;;;3.85;;
38113;SDS011;23926;53.222;6.354;2023-04-24T10:37:51;6.25;;;3.20;;
38113;SDS011;23926;53.222;6.354;2023-04-24T10:40:25;10.15;;;3.40;;
38113;SDS011;23926;53.222;6.354;2023-04-24T10:43:04;10.65;;;3.75;;
38113;SDS011;23926;53.222;6.354;2023-04-24T10:45:33;8.57;;;3.45;;
38113;SDS011;23926;53.222;6.354;2023-04-24T10:47:59;11.07;;;3.85;;
38113;SDS011;23926;53.222;6.354;2023-04-24T10:50:28;12.73;;;3.78;;
38113;SDS011;23926;53.222;6.354;2023-04-24T10:53:04;13.93;;;4.03;;
38113;SDS011;23926;53.222;6.354;2023-04-24T10:55:39;9.25;;;3.03;;
38113;SDS011;23926;53.222;6.354;2023-04-24T10:58:07;8.60;;;2.63;;
38113;SDS011;23926;53.222;6.354;2023-04-24T11:00:32;9.77;;;3.10;;
38113;SDS011;23926;53.222;6.354;2023-04-24T11:03:03;13.25;;;3.10;;
38113;SDS011;23926;53.222;6.354;2023-04-24T11:05:49;10.80;;;2.85;;
38113;SDS011;23926;53.222;6.354;2023-04-24T11:08:16;11.05;;;3.00;;
38113;SDS011;23926;53.222;6.354;2023-04-24T11:10:56;9.88;;;2.65;;
38113;SDS011;23926;53.222;6.354;2023-04-24T11:13:24;6.93;;;2.42;;
38113;SDS011;23926;53.222;6.354;2023-04-24T11:19:05;15.15;;;2.65;;
38113;SDS011;23926;53.222;6.354;2023-04-24T11:21:32;10.75;;;2.60;;
38113;SDS011;23926;53.222;6.354;2023-04-24T11:26:51;9.70;;;2.80;;
38113;SDS011;23926;53.222;6.354;2023-04-24T11:29:19;8.98;;;2.58;;
38113;SDS011;23926;53.222;6.354;2023-04-24T11:31:46;7.68;;;2.30;;
38113;SDS011;23926;53.222;6.354;2023-04-24T11:34:15;9.07;;;2.72;;
38113;SDS011;23926;53.222;6.354;2023-04-24T11:36:44;8.40;;;2.38;;
38113;SDS011;23926;53.222;6.354;2023-04-24T11:39:11;6.32;;;2.58;;
38113;SDS011;23926;53.222;6.354;2023-04-24T11:41:37;8.82;;;2.58;;
38113;SDS011;23926;53.222;6.354;2023-04-24T11:44:03;9.48;;;2.60;;
38113;SDS011;23926;53.222;6.354;2023-04-24T11:46:31;12.45;;;2.53;;
38113;SDS011;23926;53.222;6.354;2023-04-24T11:48:57;11.60;;;2.55;;
38113;SDS011;23926;53.222;6.354;2023-04-24T11:51:24;9.70;;;2.13;;
38113;SDS011;23926;53.222;6.354;2023-04-24T11:53:53;8.82;;;2.35;;
38113;SDS011;23926;53.222;6.354;2023-04-24T11:56:23;12.43;;;3.13;;
38113;SDS011;23926;53.222;6.354;2023-04-24T11:58:51;8.27;;;2.58;;
38113;SDS011;23926;53.222;6.354;2023-04-24T12:01:18;6.07;;;2.45;;
38113;SDS011;23926;53.222;6.354;2023-04-24T12:03:47;6.57;;;2.33;;
38113;SDS011;23926;53.222;6.354;2023-04-24T12:06:13;4.60;;;2.03;;
38113;SDS011;23926;53.222;6.354;2023-04-24T12:08:38;4.75;;;2.00;;
38113;SDS011;23926;53.222;6.354;2023-04-24T12:11:06;4.05;;;1.90;;
38113;SDS011;23926;53.222;6.354;2023-04-24T12:13:32;4.60;;;1.52;;
38113;SDS011;23926;53.222;6.354;2023-04-24T12:15:58;5.03;;;1.83;;
38113;SDS011;23926;53.222;6.354;2023-04-24T12:18:24;5.05;;;1.83;;
38113;SDS011;23926;53.222;6.354;2023-04-24T12:20:50;9.85;;;2.40;;
38113;SDS011;23926;53.222;6.354;2023-04-24T12:23:16;3.05;;;1.27;;
38113;SDS011;23926;53.222;6.354;2023-04-24T12:25:42;3.97;;;1.63;;
38113;SDS011;23926;53.222;6.354;2023-04-24T12:28:09;7.82;;;2.97;;
38113;SDS011;23926;53.222;6.354;2023-04-24T12:30:40;4.65;;;1.67;;
38113;SDS011;23926;53.222;6.354;2023-04-24T12:33:09;6.18;;;1.75;;
38113;SDS011;23926;53.222;6.354;2023-04-24T12:35:34;5.18;;;1.55;;
38113;SDS011;23926;53.222;6.354;2023-04-24T12:38:07;5.18;;;1.80;;
38113;SDS011;23926;53.222;6.354;2023-04-24T12:40:38;3.03;;;1.60;;
38113;SDS011;23926;53.222;6.354;2023-04-24T12:43:13;5.65;;;1.73;;
38113;SDS011;23926;53.222;6.354;2023-04-24T12:45:42;4.68;;;1.50;;
38113;SDS011;23926;53.222;6.354;2023-04-24T12:48:07;8.45;;;1.90;;
38113;SDS011;23926;53.222;6.354;2023-04-24T12:50:33;9.13;;;2.35;;
38113;SDS011;23926;53.222;6.354;2023-04-24T12:52:59;9.63;;;2.03;;
38113;SDS011;23926;53.222;6.354;2023-04-24T12:55:25;6.22;;;1.58;;
38113;SDS011;23926;53.222;6.354;2023-04-24T12:57:50;5.88;;;1.67;;
38113;SDS011;23926;53.222;6.354;2023-04-24T13:00:16;10.40;;;1.70;;
38113;SDS011;23926;53.222;6.354;2023-04-24T13:02:42;9.15;;;2.35;;
38113;SDS011;23926;53.222;6.354;2023-04-24T13:05:08;14.63;;;1.70;;
38113;SDS011;23926;53.222;6.354;2023-04-24T13:07:33;4.80;;;1.55;;
38113;SDS011;23926;53.222;6.354;2023-04-24T13:09:59;5.78;;;1.15;;
38113;SDS011;23926;53.222;6.354;2023-04-24T13:12:25;5.68;;;1.48;;
38113;SDS011;23926;53.222;6.354;2023-04-24T13:14:51;3.92;;;1.10;;
38113;SDS011;23926;53.222;6.354;2023-04-24T13:17:17;4.47;;;1.30;;
38113;SDS011;23926;53.222;6.354;2023-04-24T13:19:43;5.00;;;1.58;;
38113;SDS011;23926;53.222;6.354;2023-04-24T13:22:10;5.40;;;1.30;;
38113;SDS011;23926;53.222;6.354;2023-04-24T13:24:36;2.28;;;0.82;;
38113;SDS011;23926;53.222;6.354;2023-04-24T13:27:03;3.83;;;1.05;;
38113;SDS011;23926;53.222;6.354;2023-04-24T13:29:28;4.35;;;1.02;;
38113;SDS011;23926;53.222;6.354;2023-04-24T13:31:54;1.75;;;0.75;;
38113;SDS011;23926;53.222;6.354;2023-04-24T13:34:23;6.43;;;1.40;;
38113;SDS011;23926;53.222;6.354;2023-04-24T13:36:50;5.32;;;1.50;;
38113;SDS011;23926;53.222;6.354;2023-04-24T13:39:19;3.25;;;1.40;;
38113;SDS011;23926;53.222;6.354;2023-04-24T13:41:45;5.30;;;1.63;;
38113;SDS011;23926;53.222;6.354;2023-04-24T13:44:13;8.00;;;1.88;;
38113;SDS011;23926;53.222;6.354;2023-04-24T13:46:39;6.20;;;2.13;;
38113;SDS011;23926;53.222;6.354;2023-04-24T13:49:04;10.43;;;2.10;;
38113;SDS011;23926;53.222;6.354;2023-04-24T13:51:30;8.68;;;2.30;;
38113;SDS011;23926;53.222;6.354;2023-04-24T13:53:55;15.45;;;2.75;;
38113;SDS011;23926;53.222;6.354;2023-04-24T13:56:21;11.15;;;3.42;;
38113;SDS011;23926;53.222;6.354;2023-04-24T13:58:47;7.95;;;2.72;;
38113;SDS011;23926;53.222;6.354;2023-04-24T14:01:13;8.65;;;2.88;;
38113;SDS011;23926;53.222;6.354;2023-04-24T14:03:40;11.23;;;2.63;;
38113;SDS011;23926;53.222;6.354;2023-04-24T14:06:08;14.88;;;3.10;;
38113;SDS011;23926;53.222;6.354;2023-04-24T14:08:33;10.05;;;2.83;;
38113;SDS011;23926;53.222;6.354;2023-04-24T14:10:59;20.83;;;3.40;;
38113;SDS011;23926;53.222;6.354;2023-04-24T14:13:24;11.48;;;2.92;;
38113;SDS011;23926;53.222;6.354;2023-04-24T14:15:49;7.93;;;2.65;;
38113;SDS011;23926;53.222;6.354;2023-04-24T14:18:15;14.18;;;2.88;;
38113;SDS011;23926;53.222;6.354;2023-04-24T14:20:41;11.07;;;2.72;;
38113;SDS011;23926;53.222;6.354;2023-04-24T14:23:06;9.98;;;3.53;;
38113;SDS011;23926;53.222;6.354;2023-04-24T14:25:32;5.25;;;2.60;;
38113;SDS011;23926;53.222;6.354;2023-04-24T14:27:57;6.75;;;2.38;;
38113;SDS011;23926;53.222;6.354;2023-04-24T14:30:23;9.38;;;2.58;;
38113;SDS011;23926;53.222;6.354;2023-04-24T14:32:48;8.57;;;2.50;;
38113;SDS011;23926;53.222;6.354;2023-04-24T14:35:13;9.98;;;2.50;;
38113;SDS011;23926;53.222;6.354;2023-04-24T14:37:39;20.70;;;3.05;;
38113;SDS011;23926;53.222;6.354;2023-04-24T14:40:06;11.90;;;3.03;;
38113;SDS011;23926;53.222;6.354;2023-04-24T14:42:33;8.35;;;2.60;;